createdAt,value
2023-03-27T00:00:46.104Z,6.17
2023-03-27T00:03:18.430Z,6.75
2023-03-27T00:05:52.050Z,7.05
2023-03-27T00:08:24.900Z,7.70
2023-03-27T00:10:57.191Z,8.75
2023-03-27T00:13:30.968Z,8.28
2023-03-27T00:16:03.040Z,10.13
2023-03-27T00:18:36.619Z,8.60
2023-03-27T00:21:08.967Z,7.97
2023-03-27T00:23:42.514Z,7.72
2023-03-27T00:26:15.518Z,7.90
2023-03-27T00:28:47.747Z,7.85
2023-03-27T00:31:20.060Z,7.08
2023-03-27T00:33:52.183Z,6.37
2023-03-27T00:36:24.420Z,6.65
2023-03-27T00:38:56.454Z,6.90
2023-03-27T00:41:28.567Z,6.35
2023-03-27T00:44:00.688Z,6.55
2023-03-27T00:46:41.801Z,5.70
2023-03-27T00:49:16.036Z,5.30
2023-03-27T00:51:48.767Z,5.60
2023-03-27T00:54:25.243Z,5.70
2023-03-27T00:57:03.317Z,5.90
2023-03-27T00:59:38.357Z,5.53
2023-03-27T01:02:11.673Z,5.58
2023-03-27T01:04:46.123Z,5.30
2023-03-27T01:07:18.634Z,5.95
2023-03-27T01:09:51.318Z,5.67
2023-03-27T01:12:59.140Z,6.50
2023-03-27T01:15:39.554Z,6.45
2023-03-27T01:18:32.158Z,5.42
2023-03-27T01:21:16.545Z,5.85
2023-03-27T01:24:08.548Z,6.00
2023-03-27T01:27:10.696Z,5.70
2023-03-27T01:29:48.896Z,5.70
2023-03-27T01:32:26.962Z,5.65
2023-03-27T01:35:11.021Z,6.00
2023-03-27T01:38:05.454Z,6.55
2023-03-27T01:40:58.588Z,6.15
2023-03-27T01:43:40.256Z,6.08
2023-03-27T01:46:15.415Z,5.78
2023-03-27T01:48:53.402Z,5.55
2023-03-27T01:51:28.508Z,5.28
2023-03-27T01:54:06.384Z,6.03
2023-03-27T01:56:46.211Z,6.15
2023-03-27T01:59:20.678Z,5.78
2023-03-27T02:02:01.286Z,6.17
2023-03-27T02:04:54.042Z,6.35
2023-03-27T02:07:33.261Z,6.08
2023-03-27T02:10:08.396Z,6.22
2023-03-27T02:12:44.902Z,6.72
2023-03-27T02:15:25.547Z,5.97
2023-03-27T02:18:02.123Z,6.83
2023-03-27T02:20:35.922Z,6.47
2023-03-27T02:23:08.937Z,6.50
2023-03-27T02:25:46.417Z,6.60
2023-03-27T02:28:37.874Z,6.80
2023-03-27T02:31:32.584Z,6.37
2023-03-27T02:34:31.667Z,6.50
2023-03-27T02:37:38.420Z,6.17
2023-03-27T02:40:27.044Z,6.30
2023-03-27T02:43:07.304Z,6.83
2023-03-27T02:45:48.264Z,8.05
2023-03-27T02:48:26.268Z,6.75
2023-03-27T02:51:02.073Z,7.28
2023-03-27T02:53:45.805Z,6.87
2023-03-27T02:56:20.340Z,5.78
2023-03-27T02:58:57.588Z,5.62
2023-03-27T03:01:36.223Z,5.20
2023-03-27T03:04:28.429Z,5.78
2023-03-27T03:07:03.694Z,5.92
2023-03-27T03:09:40.417Z,6.72
2023-03-27T03:12:11.284Z,6.40
2023-03-27T03:14:45.575Z,6.47
2023-03-27T03:17:19.057Z,8.03
2023-03-27T03:19:51.392Z,6.53
2023-03-27T03:22:23.309Z,8.45
2023-03-27T03:24:57.787Z,8.63
2023-03-27T03:27:34.224Z,7.50
2023-03-27T03:30:09.757Z,7.97
2023-03-27T03:32:43.601Z,8.10
2023-03-27T03:35:15.922Z,8.70
2023-03-27T03:37:51.008Z,8.90
2023-03-27T03:40:24.393Z,8.75
2023-03-27T03:42:58.177Z,9.60
2023-03-27T03:45:31.887Z,9.83
2023-03-27T03:48:04.338Z,10.60
2023-03-27T03:50:36.531Z,10.60
2023-03-27T03:53:09.216Z,9.30
2023-03-27T03:55:41.282Z,10.15
2023-03-27T03:58:13.617Z,9.28
2023-03-27T04:00:47.360Z,9.35
2023-03-27T04:03:26.218Z,8.80
2023-03-27T04:06:00.801Z,8.30
2023-03-27T04:08:34.517Z,8.40
2023-03-27T04:11:11.087Z,8.63
2023-03-27T04:13:48.093Z,7.58
2023-03-27T04:16:24.878Z,8.40
2023-03-27T04:18:57.458Z,6.58
2023-03-27T04:21:31.226Z,6.17
2023-03-27T04:24:03.434Z,7.12
2023-03-27T04:26:37.235Z,6.58
2023-03-27T04:29:11.930Z,6.78
2023-03-27T04:31:49.525Z,6.80
2023-03-27T04:34:33.684Z,7.60
2023-03-27T04:37:10.446Z,7.12
2023-03-27T04:39:44.679Z,6.87
2023-03-27T04:42:17.129Z,6.47
2023-03-27T04:44:49.508Z,7.87
2023-03-27T04:47:21.901Z,6.75
2023-03-27T04:49:55.363Z,7.53
2023-03-27T04:52:29.727Z,7.08
2023-03-27T04:55:02.637Z,7.80
2023-03-27T04:57:35.432Z,7.87
2023-03-27T05:00:10.482Z,7.80
2023-03-27T05:02:52.094Z,7.17
2023-03-27T05:05:25.941Z,8.40
2023-03-27T05:07:59.228Z,6.92
2023-03-27T05:10:31.629Z,8.03
2023-03-27T05:13:04.139Z,8.98
2023-03-27T05:15:39.229Z,8.03
2023-03-27T05:18:12.839Z,8.28
2023-03-27T05:20:46.483Z,9.20
2023-03-27T05:23:18.721Z,9.03
2023-03-27T05:25:59.362Z,8.55
2023-03-27T05:28:26.706Z,8.93
2023-03-27T05:31:02.151Z,9.20
2023-03-27T05:33:35.876Z,8.98
2023-03-27T05:36:08.792Z,8.05
2023-03-27T05:41:22.785Z,9.38
2023-03-27T05:43:55.166Z,9.15
2023-03-27T05:46:28.133Z,8.98
2023-03-27T05:49:02.674Z,9.38
2023-03-27T05:51:35.078Z,9.63
2023-03-27T05:54:07.759Z,8.50
2023-03-27T05:56:42.424Z,9.40
2023-03-27T05:59:15.662Z,9.05
2023-03-27T06:01:49.223Z,8.03
2023-03-27T06:04:23.367Z,8.93
2023-03-27T06:07:09.929Z,8.80
2023-03-27T06:09:42.151Z,9.38
2023-03-27T06:12:33.230Z,8.05
2023-03-27T06:15:08.839Z,7.25
2023-03-27T06:17:51.248Z,7.42
2023-03-27T06:20:25.103Z,8.70
2023-03-27T06:25:35.588Z,7.58
2023-03-27T06:28:09.994Z,7.80
2023-03-27T06:30:43.798Z,8.65
2023-03-27T06:33:32.714Z,8.93
2023-03-27T06:36:07.251Z,8.55
2023-03-27T06:38:40.740Z,7.35
2023-03-27T06:41:13.526Z,6.92
2023-03-27T06:43:59.307Z,6.35
2023-03-27T06:46:45.764Z,6.03
2023-03-27T06:49:18.800Z,6.42
2023-03-27T06:51:51.734Z,6.65
2023-03-27T06:54:25.070Z,6.07
2023-03-27T06:57:00.056Z,6.47
2023-03-27T06:59:33.852Z,6.85
2023-03-27T07:02:06.746Z,7.65
2023-03-27T07:05:04.684Z,7.70
2023-03-27T07:07:34.156Z,8.25
2023-03-27T07:10:07.509Z,7.05
2023-03-27T07:12:41.548Z,7.25
2023-03-27T07:15:14.488Z,7.00
2023-03-27T07:17:49.354Z,6.50
2023-03-27T07:20:22.942Z,5.85
2023-03-27T07:22:57.803Z,6.75
2023-03-27T07:25:39.474Z,6.30
2023-03-27T07:28:17.101Z,6.60
2023-03-27T07:30:49.502Z,5.72
2023-03-27T07:33:23.438Z,6.07
2023-03-27T07:35:56.504Z,6.65
2023-03-27T07:41:09.483Z,5.95
2023-03-27T07:44:01.816Z,6.10
2023-03-27T07:46:35.518Z,6.22
2023-03-27T07:49:09.853Z,6.47
2023-03-27T07:51:42.713Z,6.90
2023-03-27T07:54:15.627Z,6.30
2023-03-27T07:56:49.943Z,6.58
2023-03-27T07:59:35.779Z,6.33
2023-03-27T08:02:11.180Z,6.70
2023-03-27T08:04:43.527Z,7.42
2023-03-27T08:07:15.693Z,6.00
2023-03-27T08:09:48.804Z,6.30
2023-03-27T08:12:22.193Z,6.75
2023-03-27T08:14:56.128Z,7.55
2023-03-27T08:17:32.662Z,7.20
2023-03-27T08:20:07.055Z,6.12
2023-03-27T08:22:40.823Z,5.87
2023-03-27T08:25:27.605Z,5.35
2023-03-27T08:28:02.831Z,5.10
2023-03-27T08:30:36.777Z,3.37
2023-03-27T08:33:09.832Z,4.20
2023-03-27T08:35:42.109Z,5.20
2023-03-27T08:38:26.176Z,4.83
2023-03-27T08:40:59.162Z,4.65
2023-03-27T08:43:44.603Z,5.03
2023-03-27T08:46:25.991Z,4.58
2023-03-27T08:49:03.007Z,3.72
2023-03-27T08:51:41.435Z,4.35
2023-03-27T08:54:22.112Z,4.45
2023-03-27T08:56:55.130Z,5.42
2023-03-27T08:59:31.673Z,4.22
2023-03-27T09:02:23.828Z,3.87
2023-03-27T09:05:05.354Z,4.25
2023-03-27T09:08:05.443Z,4.83
2023-03-27T09:10:50.364Z,4.10
2023-03-27T09:16:24.062Z,4.30
2023-03-27T09:19:16.188Z,3.87
2023-03-27T09:21:51.345Z,3.52
2023-03-27T09:24:34.112Z,4.17
2023-03-27T09:27:29.428Z,5.15
2023-03-27T09:30:20.774Z,4.37
2023-03-27T09:32:57.980Z,4.95
2023-03-27T09:35:30.506Z,4.50
2023-03-27T09:38:07.498Z,4.70
2023-03-27T09:40:53.085Z,4.85
2023-03-27T09:43:34.923Z,5.15
2023-03-27T09:46:09.450Z,4.83
2023-03-27T09:48:59.239Z,5.10
2023-03-27T09:51:50.258Z,4.20
2023-03-27T09:54:29.931Z,4.12
2023-03-27T09:57:08.534Z,7.33
2023-03-27T09:59:44.186Z,4.83
2023-03-27T10:02:20.290Z,3.77
2023-03-27T10:05:12.058Z,3.77
2023-03-27T10:07:45.349Z,3.92
2023-03-27T10:12:59.242Z,4.08
2023-03-27T10:15:39.574Z,3.98
2023-03-27T10:18:28.160Z,3.92
2023-03-27T10:21:28.665Z,3.40
2023-03-27T10:24:45.727Z,3.10
2023-03-27T10:27:27.087Z,3.27
2023-03-27T10:30:27.759Z,3.27
2023-03-27T10:33:01.731Z,3.58
2023-03-27T10:35:41.897Z,3.17
2023-03-27T10:38:24.908Z,4.28
2023-03-27T10:41:17.657Z,3.77
2023-03-27T10:43:53.889Z,3.85
2023-03-27T10:46:29.214Z,3.60
2023-03-27T10:49:25.696Z,3.45
2023-03-27T10:52:17.606Z,3.50
2023-03-27T10:55:12.606Z,3.27
2023-03-27T10:57:47.914Z,3.30
2023-03-27T11:00:29.234Z,2.67
2023-03-27T11:03:18.323Z,3.92
2023-03-27T11:05:53.226Z,3.10
2023-03-27T11:08:48.170Z,3.17
2023-03-27T11:11:25.924Z,4.30
2023-03-27T11:14:02.596Z,3.05
2023-03-27T11:16:38.132Z,4.45
2023-03-27T11:19:40.213Z,4.05
2023-03-27T11:22:22.377Z,3.55
2023-03-27T11:24:59.028Z,4.05
2023-03-27T11:27:50.370Z,5.12
2023-03-27T11:30:34.017Z,3.25
2023-03-27T11:33:25.841Z,3.25
2023-03-27T11:36:14.326Z,2.95
2023-03-27T11:38:59.926Z,3.98
2023-03-27T11:41:32.245Z,3.52
2023-03-27T11:44:06.751Z,4.83
2023-03-27T11:46:52.615Z,3.98
2023-03-27T11:49:48.044Z,3.77
2023-03-27T11:52:32.696Z,3.40
2023-03-27T11:55:12.595Z,3.35
2023-03-27T11:57:48.076Z,3.65
2023-03-27T12:00:36.641Z,3.80
2023-03-27T12:03:41.980Z,4.10
2023-03-27T12:06:25.317Z,3.60
2023-03-27T12:09:17.963Z,3.52
2023-03-27T12:12:06.670Z,4.20
2023-03-27T12:15:08.823Z,4.45
2023-03-27T12:17:50.192Z,4.92
2023-03-27T12:20:52.001Z,3.35
2023-03-27T12:23:33.501Z,3.05
2023-03-27T12:26:35.622Z,3.00
2023-03-27T12:29:31.717Z,3.65
2023-03-27T12:32:17.030Z,2.75
2023-03-27T12:34:59.300Z,3.60
2023-03-27T12:37:35.930Z,1.42
2023-03-27T12:40:12.854Z,1.60
2023-03-27T12:42:53.671Z,2.50
2023-03-27T12:45:30.565Z,3.05
2023-03-27T12:48:11.606Z,2.42
2023-03-27T12:50:54.917Z,1.77
2023-03-27T12:53:33.088Z,2.12
2023-03-27T12:56:18.068Z,1.67
2023-03-27T12:58:55.052Z,2.50
2023-03-27T13:01:52.415Z,2.50
2023-03-27T13:04:40.359Z,2.05
2023-03-27T13:07:33.323Z,2.77
2023-03-27T13:10:16.292Z,3.22
2023-03-27T13:13:18.575Z,3.45
2023-03-27T13:16:12.262Z,2.60
2023-03-27T13:18:52.272Z,2.90
2023-03-27T13:21:41.821Z,3.17
2023-03-27T13:24:34.881Z,5.53
2023-03-27T13:27:25.170Z,3.40
2023-03-27T13:30:01.399Z,3.30
2023-03-27T13:32:40.832Z,3.40
2023-03-27T13:35:26.217Z,3.27
2023-03-27T13:38:00.919Z,3.70
2023-03-27T13:40:42.671Z,2.77
2023-03-27T13:43:20.905Z,2.83
2023-03-27T13:45:57.860Z,4.05
2023-03-27T13:49:19.555Z,2.37
2023-03-27T13:52:40.177Z,3.37
2023-03-27T13:55:33.338Z,2.55
2023-03-27T13:58:16.045Z,2.35
2023-03-27T14:01:01.159Z,3.15
2023-03-27T14:04:02.816Z,2.70
2023-03-27T14:06:58.763Z,2.90
2023-03-27T14:09:45.495Z,2.50
2023-03-27T14:12:41.851Z,3.40
2023-03-27T14:15:47.233Z,2.40
2023-03-27T14:18:52.141Z,2.20
2023-03-27T14:21:37.933Z,2.30
2023-03-27T14:24:08.883Z,2.55
2023-03-27T14:26:45.789Z,4.28
2023-03-27T14:29:20.883Z,4.03
2023-03-27T14:31:54.725Z,2.62
2023-03-27T14:34:40.580Z,2.70
2023-03-27T14:37:30.088Z,3.15
2023-03-27T14:40:23.305Z,2.80
2023-03-27T14:42:58.861Z,2.52
2023-03-27T14:45:34.651Z,2.27
2023-03-27T14:48:12.808Z,2.17
2023-03-27T14:50:53.359Z,2.10
2023-03-27T14:53:28.507Z,2.42
2023-03-27T14:56:29.146Z,2.60
2023-03-27T14:59:17.936Z,2.20
2023-03-27T15:01:54.317Z,2.40
2023-03-27T15:04:30.318Z,2.33
2023-03-27T15:07:22.759Z,2.35
2023-03-27T15:10:05.440Z,3.27
2023-03-27T15:12:48.377Z,2.30
2023-03-27T15:15:42.812Z,2.55
2023-03-27T15:18:28.516Z,2.75
2023-03-27T15:21:06.771Z,3.42
2023-03-27T15:23:58.997Z,2.90
2023-03-27T15:26:35.199Z,2.70
2023-03-27T15:29:27.682Z,2.87
2023-03-27T15:32:01.765Z,3.37
2023-03-27T15:34:42.586Z,3.65
2023-03-27T15:37:22.009Z,2.80
2023-03-27T15:40:15.701Z,3.37
2023-03-27T15:42:53.718Z,3.50
2023-03-27T15:45:28.799Z,3.05
2023-03-27T15:48:09.989Z,3.50
2023-03-27T15:50:43.498Z,3.37
2023-03-27T15:53:18.416Z,1.85
2023-03-27T15:55:54.938Z,2.90
2023-03-27T15:58:30.517Z,3.55
2023-03-27T16:01:18.789Z,3.22
2023-03-27T16:03:39.695Z,2.90
2023-03-27T16:06:15.147Z,3.40
2023-03-27T16:08:47.912Z,3.55
2023-03-27T16:11:45.987Z,4.50
2023-03-27T16:14:23.481Z,3.92
2023-03-27T16:17:18.065Z,3.52
2023-03-27T16:20:02.134Z,3.55
2023-03-27T16:22:37.362Z,3.42
2023-03-27T16:25:12.499Z,3.52
2023-03-27T16:27:49.984Z,4.45
2023-03-27T16:30:32.224Z,4.03
2023-03-27T16:33:07.181Z,3.50
2023-03-27T16:35:39.204Z,3.65
2023-03-27T16:38:11.165Z,3.08
2023-03-27T16:40:44.220Z,1.80
2023-03-27T16:43:16.746Z,3.52
2023-03-27T16:45:49.591Z,3.00
2023-03-27T16:48:21.632Z,3.20
2023-03-27T16:50:53.762Z,3.33
2023-03-27T16:53:25.782Z,3.40
2023-03-27T16:55:59.741Z,3.52
2023-03-27T16:58:32.255Z,3.50
2023-03-27T17:01:06.249Z,3.95
2023-03-27T17:03:38.317Z,4.08
2023-03-27T17:06:12.903Z,3.47
2023-03-27T17:08:45.034Z,3.62
2023-03-27T17:11:17.053Z,4.45
2023-03-27T17:13:50.245Z,3.67
2023-03-27T17:16:22.531Z,4.30
2023-03-27T17:18:55.826Z,4.30
2023-03-27T17:21:28.593Z,4.58
2023-03-27T17:24:01.113Z,3.80
2023-03-27T17:26:35.822Z,3.27
2023-03-27T17:29:08.634Z,3.65
2023-03-27T17:31:40.897Z,3.70
2023-03-27T17:34:13.204Z,4.28
2023-03-27T17:36:54.038Z,4.30
2023-03-27T17:39:18.986Z,4.27
2023-03-27T17:41:50.990Z,4.50
2023-03-27T17:44:23.131Z,3.83
2023-03-27T17:46:55.275Z,3.75
2023-03-27T17:49:34.651Z,4.70
2023-03-27T17:52:08.356Z,3.85
2023-03-27T17:54:42.166Z,3.80
2023-03-27T17:57:14.295Z,5.80
2023-03-27T17:59:49.228Z,5.00
2023-03-27T18:02:22.761Z,4.50
2023-03-27T18:04:54.676Z,4.40
2023-03-27T18:07:30.667Z,4.40
2023-03-27T18:10:02.920Z,4.50
2023-03-27T18:12:35.203Z,4.87
2023-03-27T18:15:08.692Z,3.70
2023-03-27T18:17:41.594Z,5.03
2023-03-27T18:20:14.392Z,4.12
2023-03-27T18:22:47.264Z,3.60
2023-03-27T18:25:19.407Z,3.08
2023-03-27T18:27:51.270Z,4.35
2023-03-27T18:30:23.983Z,3.25
2023-03-27T18:32:56.500Z,3.87
2023-03-27T18:35:28.418Z,3.83
2023-03-27T18:38:00.776Z,2.47
2023-03-27T18:40:33.659Z,4.42
2023-03-27T18:43:05.816Z,3.47
2023-03-27T18:45:38.016Z,3.08
2023-03-27T18:48:10.973Z,3.30
2023-03-27T18:50:43.144Z,3.42
2023-03-27T18:53:15.250Z,4.55
2023-03-27T18:55:52.146Z,3.80
2023-03-27T18:58:24.822Z,3.55
2023-03-27T19:00:57.504Z,3.70
2023-03-27T19:03:35.355Z,3.02
2023-03-27T19:06:09.943Z,2.87
2023-03-27T19:08:43.828Z,2.72
2023-03-27T19:11:15.850Z,2.15
2023-03-27T19:14:05.741Z,2.87
2023-03-27T19:16:39.440Z,3.87
2023-03-27T19:19:22.685Z,2.55
2023-03-27T19:21:59.127Z,2.45
2023-03-27T19:24:32.734Z,2.47
2023-03-27T19:27:05.116Z,2.30
2023-03-27T19:29:37.127Z,2.70
2023-03-27T19:32:09.078Z,3.62
2023-03-27T19:34:43.072Z,2.67
2023-03-27T19:37:14.918Z,2.50
2023-03-27T19:39:47.042Z,2.35
2023-03-27T19:42:19.242Z,2.40
2023-03-27T19:44:51.127Z,2.15
2023-03-27T19:47:23.606Z,2.77
2023-03-27T19:49:55.587Z,3.02
2023-03-27T19:52:51.633Z,2.77
2023-03-27T19:55:21.288Z,3.17
2023-03-27T19:57:56.208Z,2.83
2023-03-27T20:00:30.157Z,2.90
2023-03-27T20:03:02.343Z,3.58
2023-03-27T20:05:34.659Z,2.77
2023-03-27T20:08:07.260Z,3.05
2023-03-27T20:10:39.307Z,3.67
2023-03-27T20:13:12.840Z,3.30
2023-03-27T20:15:50.263Z,3.43
2023-03-27T20:18:22.470Z,3.40
2023-03-27T20:20:56.283Z,2.80
2023-03-27T20:23:29.904Z,3.42
2023-03-27T20:26:04.862Z,3.30
2023-03-27T20:28:38.710Z,3.22
2023-03-27T20:31:10.723Z,2.70
2023-03-27T20:33:42.762Z,3.10
2023-03-27T20:36:15.676Z,2.90
2023-03-27T20:38:50.177Z,3.47
2023-03-27T20:41:22.212Z,3.90
2023-03-27T20:43:54.636Z,3.55
2023-03-27T20:46:28.882Z,3.15
2023-03-27T20:51:31.980Z,3.87
2023-03-27T20:54:06.068Z,5.30
2023-03-27T20:56:38.100Z,3.50
2023-03-27T20:59:10.505Z,4.53
2023-03-27T21:01:43.676Z,3.83
2023-03-27T21:04:16.708Z,4.15
2023-03-27T21:06:48.828Z,3.77
2023-03-27T21:09:20.779Z,4.30
2023-03-27T21:11:54.562Z,4.00
2023-03-27T21:14:26.807Z,3.85
2023-03-27T21:16:58.975Z,3.58
2023-03-27T21:19:31.088Z,4.05
2023-03-27T21:22:03.195Z,4.12
2023-03-27T21:24:35.355Z,4.45
2023-03-27T21:27:07.552Z,4.40
2023-03-27T21:29:39.685Z,4.22
2023-03-27T21:32:11.848Z,4.53
2023-03-27T21:34:44.825Z,4.40
2023-03-27T21:37:17.013Z,4.50
2023-03-27T21:39:48.976Z,3.85
2023-03-27T21:42:21.921Z,4.10
2023-03-27T21:44:56.672Z,3.98
2023-03-27T21:47:37.467Z,4.20
2023-03-27T21:50:01.557Z,4.17
2023-03-27T21:52:33.848Z,3.92
2023-03-27T21:55:06.263Z,4.55
2023-03-27T21:57:38.470Z,3.90
2023-03-27T22:00:11.704Z,4.85
2023-03-27T22:02:46.561Z,4.20
2023-03-27T22:05:18.896Z,4.05
2023-03-27T22:07:51.042Z,4.25
2023-03-27T22:10:23.120Z,3.77
2023-03-27T22:12:55.141Z,3.75
2023-03-27T22:15:27.098Z,3.77
2023-03-27T22:17:59.362Z,2.98
2023-03-27T22:20:31.623Z,3.30
2023-03-27T22:23:03.716Z,3.87
2023-03-27T22:25:35.664Z,3.70
2023-03-27T22:28:07.641Z,4.08
2023-03-27T22:30:39.967Z,4.00
2023-03-27T22:33:12.100Z,4.30
2023-03-27T22:35:49.448Z,4.03
2023-03-27T22:38:21.722Z,4.58
2023-03-27T22:40:54.010Z,4.33
2023-03-27T22:43:26.467Z,3.85
2023-03-27T22:46:00.299Z,4.37
2023-03-27T22:48:34.855Z,3.95
2023-03-27T22:51:07.243Z,4.40
2023-03-27T22:53:39.558Z,3.90
2023-03-27T22:56:11.717Z,3.70
2023-03-27T22:58:43.820Z,3.98
2023-03-27T23:01:15.783Z,3.60
2023-03-27T23:03:47.930Z,3.35
2023-03-27T23:06:21.762Z,3.12
2023-03-27T23:08:54.442Z,3.55
2023-03-27T23:11:26.353Z,3.40
2023-03-27T23:13:58.352Z,3.15
2023-03-27T23:16:30.488Z,3.40
2023-03-27T23:19:02.549Z,2.92
2023-03-27T23:21:34.507Z,3.10
2023-03-27T23:24:06.937Z,2.80
2023-03-27T23:26:39.046Z,3.00
2023-03-27T23:29:11.144Z,3.50
2023-03-27T23:31:43.221Z,3.10
2023-03-27T23:34:15.557Z,3.22
2023-03-27T23:36:47.659Z,3.40
2023-03-27T23:39:19.688Z,2.80
2023-03-27T23:41:51.747Z,2.35
2023-03-27T23:44:23.766Z,2.35
2023-03-27T23:46:55.710Z,2.42
2023-03-27T23:49:27.561Z,2.30
2023-03-27T23:52:00.592Z,2.72
2023-03-27T23:54:35.757Z,2.70
2023-03-27T23:57:07.966Z,2.65
2023-03-27T23:59:40.050Z,2.65
